sensor_id;sensor_type;location;lat;lon;timestamp;P1;durP1;ratioP1;P2;durP2;ratioP2
6928;SDS011;3504;52.616;13.238;2023-12-20T00:03:12;7.77;;;6.10;;
6928;SDS011;3504;52.616;13.238;2023-12-20T00:08:13;7.77;;;6.20;;
6928;SDS011;3504;52.616;13.238;2023-12-20T00:13:13;12.13;;;6.90;;
6928;SDS011;3504;52.616;13.238;2023-12-20T00:18:14;9.07;;;7.17;;
6928;SDS011;3504;52.616;13.238;2023-12-20T00:23:14;10.20;;;6.83;;
6928;SDS011;3504;52.616;13.238;2023-12-20T00:28:15;9.00;;;6.30;;
6928;SDS011;3504;52.616;13.238;2023-12-20T00:33:15;8.27;;;6.80;;
6928;SDS011;3504;52.616;13.238;2023-12-20T00:38:16;8.50;;;7.20;;
6928;SDS011;3504;52.616;13.238;2023-12-20T00:43:16;9.13;;;7.33;;
6928;SDS011;3504;52.616;13.238;2023-12-20T00:48:17;8.47;;;6.73;;
6928;SDS011;3504;52.616;13.238;2023-12-20T00:53:17;8.47;;;6.87;;
6928;SDS011;3504;52.616;13.238;2023-12-20T00:58:18;10.83;;;7.53;;
6928;SDS011;3504;52.616;13.238;2023-12-20T01:03:19;10.17;;;7.00;;
6928;SDS011;3504;52.616;13.238;2023-12-20T01:08:19;8.53;;;6.43;;
6928;SDS011;3504;52.616;13.238;2023-12-20T01:13:20;8.80;;;6.63;;
6928;SDS011;3504;52.616;13.238;2023-12-20T01:18:20;7.83;;;5.97;;
6928;SDS011;3504;52.616;13.238;2023-12-20T01:23:20;10.53;;;6.70;;
6928;SDS011;3504;52.616;13.238;2023-12-20T01:28:21;8.43;;;6.07;;
6928;SDS011;3504;52.616;13.238;2023-12-20T01:33:22;6.13;;;5.37;;
6928;SDS011;3504;52.616;13.238;2023-12-20T01:38:23;8.43;;;5.40;;
6928;SDS011;3504;52.616;13.238;2023-12-20T01:43:24;8.60;;;5.60;;
6928;SDS011;3504;52.616;13.238;2023-12-20T01:48:25;6.83;;;5.17;;
6928;SDS011;3504;52.616;13.238;2023-12-20T01:53:30;5.23;;;4.47;;
6928;SDS011;3504;52.616;13.238;2023-12-20T01:58:32;7.00;;;4.30;;
6928;SDS011;3504;52.616;13.238;2023-12-20T02:03:41;5.90;;;3.10;;
6928;SDS011;3504;52.616;13.238;2023-12-20T02:08:42;6.10;;;3.60;;
6928;SDS011;3504;52.616;13.238;2023-12-20T02:13:43;4.50;;;2.77;;
6928;SDS011;3504;52.616;13.238;2023-12-20T02:18:44;3.53;;;2.50;;
6928;SDS011;3504;52.616;13.238;2023-12-20T02:23:45;4.53;;;2.20;;
6928;SDS011;3504;52.616;13.238;2023-12-20T02:28:46;5.07;;;2.07;;
6928;SDS011;3504;52.616;13.238;2023-12-20T02:33:47;3.83;;;1.80;;
6928;SDS011;3504;52.616;13.238;2023-12-20T02:38:48;2.33;;;1.80;;
6928;SDS011;3504;52.616;13.238;2023-12-20T02:43:50;3.07;;;2.60;;
6928;SDS011;3504;52.616;13.238;2023-12-20T02:48:56;3.40;;;2.57;;
6928;SDS011;3504;52.616;13.238;2023-12-20T02:53:58;3.93;;;2.50;;
6928;SDS011;3504;52.616;13.238;2023-12-20T02:58:59;5.60;;;2.80;;
6928;SDS011;3504;52.616;13.238;2023-12-20T03:04:00;9.23;;;2.60;;
6928;SDS011;3504;52.616;13.238;2023-12-20T03:09:01;5.80;;;2.63;;
6928;SDS011;3504;52.616;13.238;2023-12-20T03:14:02;5.23;;;2.40;;
6928;SDS011;3504;52.616;13.238;2023-12-20T03:19:02;5.63;;;2.37;;
6928;SDS011;3504;52.616;13.238;2023-12-20T03:24:03;6.20;;;2.43;;
6928;SDS011;3504;52.616;13.238;2023-12-20T03:29:04;4.90;;;2.57;;
6928;SDS011;3504;52.616;13.238;2023-12-20T03:34:04;6.40;;;2.60;;
6928;SDS011;3504;52.616;13.238;2023-12-20T03:39:05;5.40;;;2.80;;
6928;SDS011;3504;52.616;13.238;2023-12-20T03:44:06;5.70;;;2.53;;
6928;SDS011;3504;52.616;13.238;2023-12-20T03:49:07;12.83;;;2.93;;
6928;SDS011;3504;52.616;13.238;2023-12-20T03:54:08;5.20;;;2.60;;
6928;SDS011;3504;52.616;13.238;2023-12-20T03:59:09;8.00;;;2.73;;
6928;SDS011;3504;52.616;13.238;2023-12-20T04:04:10;8.83;;;2.73;;
6928;SDS011;3504;52.616;13.238;2023-12-20T04:09:12;10.63;;;2.90;;
6928;SDS011;3504;52.616;13.238;2023-12-20T04:14:15;5.93;;;2.27;;
6928;SDS011;3504;52.616;13.238;2023-12-20T04:19:16;17.50;;;3.17;;
6928;SDS011;3504;52.616;13.238;2023-12-20T04:24:17;4.87;;;2.57;;
6928;SDS011;3504;52.616;13.238;2023-12-20T04:29:18;7.53;;;2.67;;
6928;SDS011;3504;52.616;13.238;2023-12-20T04:34:18;10.13;;;2.63;;
6928;SDS011;3504;52.616;13.238;2023-12-20T04:39:19;7.67;;;3.00;;
6928;SDS011;3504;52.616;13.238;2023-12-20T04:44:20;8.97;;;2.73;;
6928;SDS011;3504;52.616;13.238;2023-12-20T04:49:21;7.93;;;2.47;;
6928;SDS011;3504;52.616;13.238;2023-12-20T04:54:22;8.67;;;2.73;;
6928;SDS011;3504;52.616;13.238;2023-12-20T04:59:23;6.47;;;2.37;;
6928;SDS011;3504;52.616;13.238;2023-12-20T05:04:23;7.50;;;2.97;;
6928;SDS011;3504;52.616;13.238;2023-12-20T05:09:24;12.03;;;3.17;;
6928;SDS011;3504;52.616;13.238;2023-12-20T05:14:25;13.87;;;3.30;;
6928;SDS011;3504;52.616;13.238;2023-12-20T05:19:26;10.27;;;2.90;;
6928;SDS011;3504;52.616;13.238;2023-12-20T05:24:27;15.80;;;3.17;;
6928;SDS011;3504;52.616;13.238;2023-12-20T05:29:28;7.97;;;2.47;;
6928;SDS011;3504;52.616;13.238;2023-12-20T05:34:28;9.70;;;2.47;;
6928;SDS011;3504;52.616;13.238;2023-12-20T05:39:29;10.53;;;2.63;;
6928;SDS011;3504;52.616;13.238;2023-12-20T05:44:31;13.23;;;3.23;;
6928;SDS011;3504;52.616;13.238;2023-12-20T05:49:31;7.70;;;3.17;;
6928;SDS011;3504;52.616;13.238;2023-12-20T05:54:32;9.50;;;2.77;;
6928;SDS011;3504;52.616;13.238;2023-12-20T05:59:32;10.63;;;3.03;;
6928;SDS011;3504;52.616;13.238;2023-12-20T06:04:33;9.33;;;3.03;;
6928;SDS011;3504;52.616;13.238;2023-12-20T06:09:34;13.53;;;3.33;;
6928;SDS011;3504;52.616;13.238;2023-12-20T06:14:35;7.83;;;3.27;;
6928;SDS011;3504;52.616;13.238;2023-12-20T06:19:36;7.80;;;3.30;;
6928;SDS011;3504;52.616;13.238;2023-12-20T06:24:36;10.70;;;3.27;;
6928;SDS011;3504;52.616;13.238;2023-12-20T06:29:37;13.30;;;3.50;;
6928;SDS011;3504;52.616;13.238;2023-12-20T06:34:37;7.80;;;2.83;;
6928;SDS011;3504;52.616;13.238;2023-12-20T06:39:38;11.67;;;3.70;;
6928;SDS011;3504;52.616;13.238;2023-12-20T06:44:38;11.63;;;3.63;;
6928;SDS011;3504;52.616;13.238;2023-12-20T06:49:40;7.30;;;2.93;;
6928;SDS011;3504;52.616;13.238;2023-12-20T06:54:40;11.70;;;3.10;;
6928;SDS011;3504;52.616;13.238;2023-12-20T06:59:41;10.10;;;2.90;;
6928;SDS011;3504;52.616;13.238;2023-12-20T07:04:42;11.60;;;3.43;;
6928;SDS011;3504;52.616;13.238;2023-12-20T07:09:42;12.33;;;3.13;;
6928;SDS011;3504;52.616;13.238;2023-12-20T07:14:43;11.30;;;3.77;;
6928;SDS011;3504;52.616;13.238;2023-12-20T07:19:43;16.87;;;3.93;;
6928;SDS011;3504;52.616;13.238;2023-12-20T07:24:44;10.67;;;3.50;;
6928;SDS011;3504;52.616;13.238;2023-12-20T07:29:44;9.40;;;3.87;;
6928;SDS011;3504;52.616;13.238;2023-12-20T07:34:45;15.60;;;3.80;;
6928;SDS011;3504;52.616;13.238;2023-12-20T07:39:45;16.40;;;4.37;;
6928;SDS011;3504;52.616;13.238;2023-12-20T07:44:46;13.93;;;4.40;;
6928;SDS011;3504;52.616;13.238;2023-12-20T07:49:47;10.83;;;4.10;;
6928;SDS011;3504;52.616;13.238;2023-12-20T07:54:51;16.07;;;3.93;;
6928;SDS011;3504;52.616;13.238;2023-12-20T07:59:52;9.90;;;3.53;;
6928;SDS011;3504;52.616;13.238;2023-12-20T08:04:53;12.93;;;3.63;;
6928;SDS011;3504;52.616;13.238;2023-12-20T08:09:53;13.27;;;3.90;;
6928;SDS011;3504;52.616;13.238;2023-12-20T08:14:54;11.30;;;2.90;;
6928;SDS011;3504;52.616;13.238;2023-12-20T08:19:57;13.47;;;3.87;;
6928;SDS011;3504;52.616;13.238;2023-12-20T08:24:57;11.57;;;3.63;;
6928;SDS011;3504;52.616;13.238;2023-12-20T08:29:57;12.47;;;3.47;;
6928;SDS011;3504;52.616;13.238;2023-12-20T08:34:58;14.57;;;3.40;;
6928;SDS011;3504;52.616;13.238;2023-12-20T08:39:58;10.83;;;3.70;;
6928;SDS011;3504;52.616;13.238;2023-12-20T08:44:59;9.13;;;2.97;;
6928;SDS011;3504;52.616;13.238;2023-12-20T08:49:59;13.80;;;4.00;;
6928;SDS011;3504;52.616;13.238;2023-12-20T08:55:01;14.07;;;3.30;;
6928;SDS011;3504;52.616;13.238;2023-12-20T09:00:02;8.67;;;3.13;;
6928;SDS011;3504;52.616;13.238;2023-12-20T09:05:03;18.33;;;3.27;;
6928;SDS011;3504;52.616;13.238;2023-12-20T09:10:04;10.67;;;3.00;;
6928;SDS011;3504;52.616;13.238;2023-12-20T09:15:04;7.93;;;2.70;;
6928;SDS011;3504;52.616;13.238;2023-12-20T09:20:05;8.77;;;2.97;;
6928;SDS011;3504;52.616;13.238;2023-12-20T09:25:08;10.07;;;2.93;;
6928;SDS011;3504;52.616;13.238;2023-12-20T09:30:13;13.70;;;3.50;;
6928;SDS011;3504;52.616;13.238;2023-12-20T09:35:14;11.40;;;3.60;;
6928;SDS011;3504;52.616;13.238;2023-12-20T09:40:15;12.47;;;3.60;;
6928;SDS011;3504;52.616;13.238;2023-12-20T09:45:19;12.60;;;3.20;;
6928;SDS011;3504;52.616;13.238;2023-12-20T09:50:21;12.83;;;3.10;;
6928;SDS011;3504;52.616;13.238;2023-12-20T09:55:22;10.90;;;3.20;;
6928;SDS011;3504;52.616;13.238;2023-12-20T10:00:25;13.07;;;3.83;;
6928;SDS011;3504;52.616;13.238;2023-12-20T10:05:26;9.27;;;3.23;;
6928;SDS011;3504;52.616;13.238;2023-12-20T10:10:32;12.10;;;3.50;;
6928;SDS011;3504;52.616;13.238;2023-12-20T10:15:33;11.20;;;2.80;;
6928;SDS011;3504;52.616;13.238;2023-12-20T10:20:35;13.40;;;3.30;;
6928;SDS011;3504;52.616;13.238;2023-12-20T10:25:36;14.27;;;4.53;;
6928;SDS011;3504;52.616;13.238;2023-12-20T10:30:42;9.67;;;3.43;;
6928;SDS011;3504;52.616;13.238;2023-12-20T10:35:43;12.53;;;3.57;;
6928;SDS011;3504;52.616;13.238;2023-12-20T10:40:43;15.03;;;4.03;;
6928;SDS011;3504;52.616;13.238;2023-12-20T10:45:45;10.93;;;3.70;;
6928;SDS011;3504;52.616;13.238;2023-12-20T10:50:48;11.80;;;4.33;;
6928;SDS011;3504;52.616;13.238;2023-12-20T10:55:49;16.30;;;6.10;;
6928;SDS011;3504;52.616;13.238;2023-12-20T11:00:59;10.63;;;4.40;;
6928;SDS011;3504;52.616;13.238;2023-12-20T11:06:09;11.87;;;3.83;;
6928;SDS011;3504;52.616;13.238;2023-12-20T11:11:43;13.33;;;4.10;;
6928;SDS011;3504;52.616;13.238;2023-12-20T11:17:05;12.40;;;4.03;;
6928;SDS011;3504;52.616;13.238;2023-12-20T11:22:09;15.03;;;4.20;;
6928;SDS011;3504;52.616;13.238;2023-12-20T11:27:11;8.73;;;3.80;;
6928;SDS011;3504;52.616;13.238;2023-12-20T11:37:29;10.33;;;3.77;;
6928;SDS011;3504;52.616;13.238;2023-12-20T11:42:38;15.10;;;4.50;;
6928;SDS011;3504;52.616;13.238;2023-12-20T11:47:41;13.53;;;4.10;;
6928;SDS011;3504;52.616;13.238;2023-12-20T11:52:50;9.07;;;3.30;;
6928;SDS011;3504;52.616;13.238;2023-12-20T11:57:53;11.67;;;3.53;;
6928;SDS011;3504;52.616;13.238;2023-12-20T12:03:00;14.03;;;4.07;;
6928;SDS011;3504;52.616;13.238;2023-12-20T12:08:03;11.63;;;3.50;;
6928;SDS011;3504;52.616;13.238;2023-12-20T12:13:04;13.17;;;3.80;;
6928;SDS011;3504;52.616;13.238;2023-12-20T12:18:05;27.13;;;8.77;;
6928;SDS011;3504;52.616;13.238;2023-12-20T12:23:07;9.87;;;3.67;;
6928;SDS011;3504;52.616;13.238;2023-12-20T12:28:07;12.00;;;3.53;;
6928;SDS011;3504;52.616;13.238;2023-12-20T12:33:08;15.33;;;3.93;;
6928;SDS011;3504;52.616;13.238;2023-12-20T12:38:08;11.67;;;4.13;;
6928;SDS011;3504;52.616;13.238;2023-12-20T12:43:09;13.77;;;5.47;;
6928;SDS011;3504;52.616;13.238;2023-12-20T12:48:09;11.30;;;4.20;;
6928;SDS011;3504;52.616;13.238;2023-12-20T12:53:10;12.80;;;4.27;;
6928;SDS011;3504;52.616;13.238;2023-12-20T12:58:11;8.63;;;4.33;;
6928;SDS011;3504;52.616;13.238;2023-12-20T13:03:11;11.00;;;4.23;;
6928;SDS011;3504;52.616;13.238;2023-12-20T13:08:12;9.77;;;3.40;;
6928;SDS011;3504;52.616;13.238;2023-12-20T13:13:14;8.40;;;3.00;;
6928;SDS011;3504;52.616;13.238;2023-12-20T13:18:14;5.40;;;2.10;;
6928;SDS011;3504;52.616;13.238;2023-12-20T13:23:15;3.90;;;2.07;;
6928;SDS011;3504;52.616;13.238;2023-12-20T13:28:18;3.60;;;1.73;;
6928;SDS011;3504;52.616;13.238;2023-12-20T13:33:18;1.90;;;1.20;;
6928;SDS011;3504;52.616;13.238;2023-12-20T13:38:19;3.60;;;1.50;;
6928;SDS011;3504;52.616;13.238;2023-12-20T13:43:19;8.50;;;2.37;;
6928;SDS011;3504;52.616;13.238;2023-12-20T13:48:21;7.07;;;1.93;;
6928;SDS011;3504;52.616;13.238;2023-12-20T13:53:22;3.77;;;1.40;;
6928;SDS011;3504;52.616;13.238;2023-12-20T13:58:23;6.87;;;1.47;;
6928;SDS011;3504;52.616;13.238;2023-12-20T14:03:23;2.50;;;1.30;;
6928;SDS011;3504;52.616;13.238;2023-12-20T14:08:24;2.87;;;1.50;;
6928;SDS011;3504;52.616;13.238;2023-12-20T14:13:25;3.07;;;1.10;;
6928;SDS011;3504;52.616;13.238;2023-12-20T14:18:25;3.80;;;1.00;;
6928;SDS011;3504;52.616;13.238;2023-12-20T14:23:26;2.97;;;1.33;;
6928;SDS011;3504;52.616;13.238;2023-12-20T14:28:26;6.10;;;1.30;;
6928;SDS011;3504;52.616;13.238;2023-12-20T14:33:27;2.40;;;1.10;;
6928;SDS011;3504;52.616;13.238;2023-12-20T14:38:27;4.33;;;1.80;;
6928;SDS011;3504;52.616;13.238;2023-12-20T14:43:28;3.53;;;1.20;;
6928;SDS011;3504;52.616;13.238;2023-12-20T14:48:28;5.93;;;1.00;;
6928;SDS011;3504;52.616;13.238;2023-12-20T14:53:29;2.60;;;1.33;;
6928;SDS011;3504;52.616;13.238;2023-12-20T14:58:30;4.00;;;1.17;;
6928;SDS011;3504;52.616;13.238;2023-12-20T15:03:31;4.23;;;1.30;;
6928;SDS011;3504;52.616;13.238;2023-12-20T15:08:32;2.70;;;1.40;;
6928;SDS011;3504;52.616;13.238;2023-12-20T15:13:32;3.53;;;1.10;;
6928;SDS011;3504;52.616;13.238;2023-12-20T15:18:33;2.90;;;1.20;;
6928;SDS011;3504;52.616;13.238;2023-12-20T15:23:33;3.37;;;1.20;;
6928;SDS011;3504;52.616;13.238;2023-12-20T15:28:34;3.53;;;1.90;;
6928;SDS011;3504;52.616;13.238;2023-12-20T15:33:34;7.57;;;4.00;;
6928;SDS011;3504;52.616;13.238;2023-12-20T15:38:35;7.10;;;2.77;;
6928;SDS011;3504;52.616;13.238;2023-12-20T15:43:36;6.87;;;3.00;;
6928;SDS011;3504;52.616;13.238;2023-12-20T15:48:37;6.50;;;1.80;;
6928;SDS011;3504;52.616;13.238;2023-12-20T15:53:38;7.07;;;3.90;;
6928;SDS011;3504;52.616;13.238;2023-12-20T15:58:43;5.63;;;3.40;;
6928;SDS011;3504;52.616;13.238;2023-12-20T16:03:44;8.60;;;2.80;;
6928;SDS011;3504;52.616;13.238;2023-12-20T16:08:45;6.60;;;3.90;;
6928;SDS011;3504;52.616;13.238;2023-12-20T16:13:46;8.80;;;3.40;;
6928;SDS011;3504;52.616;13.238;2023-12-20T16:18:47;6.33;;;2.53;;
6928;SDS011;3504;52.616;13.238;2023-12-20T16:23:48;8.60;;;3.03;;
6928;SDS011;3504;52.616;13.238;2023-12-20T16:28:49;6.87;;;2.37;;
6928;SDS011;3504;52.616;13.238;2023-12-20T16:33:49;11.67;;;3.60;;
6928;SDS011;3504;52.616;13.238;2023-12-20T16:38:50;8.43;;;3.50;;
6928;SDS011;3504;52.616;13.238;2023-12-20T16:43:50;8.27;;;3.00;;
6928;SDS011;3504;52.616;13.238;2023-12-20T16:48:51;9.33;;;3.67;;
6928;SDS011;3504;52.616;13.238;2023-12-20T16:53:51;10.50;;;4.37;;
6928;SDS011;3504;52.616;13.238;2023-12-20T16:58:54;7.77;;;3.47;;
6928;SDS011;3504;52.616;13.238;2023-12-20T17:03:55;6.43;;;3.80;;
6928;SDS011;3504;52.616;13.238;2023-12-20T17:08:58;7.10;;;4.00;;
6928;SDS011;3504;52.616;13.238;2023-12-20T17:13:59;5.30;;;2.90;;
6928;SDS011;3504;52.616;13.238;2023-12-20T17:19:00;12.07;;;5.40;;
6928;SDS011;3504;52.616;13.238;2023-12-20T17:24:02;8.03;;;4.50;;
6928;SDS011;3504;52.616;13.238;2023-12-20T17:29:03;11.30;;;4.43;;
6928;SDS011;3504;52.616;13.238;2023-12-20T17:34:03;7.63;;;3.83;;
6928;SDS011;3504;52.616;13.238;2023-12-20T17:39:07;11.23;;;3.77;;
6928;SDS011;3504;52.616;13.238;2023-12-20T17:44:07;11.17;;;4.20;;
6928;SDS011;3504;52.616;13.238;2023-12-20T17:49:08;10.50;;;3.60;;
6928;SDS011;3504;52.616;13.238;2023-12-20T17:54:09;12.40;;;4.13;;
6928;SDS011;3504;52.616;13.238;2023-12-20T17:59:09;12.70;;;4.10;;
6928;SDS011;3504;52.616;13.238;2023-12-20T18:04:10;11.87;;;4.30;;
6928;SDS011;3504;52.616;13.238;2023-12-20T18:09:10;9.93;;;4.00;;
6928;SDS011;3504;52.616;13.238;2023-12-20T18:14:11;15.07;;;4.73;;
6928;SDS011;3504;52.616;13.238;2023-12-20T18:19:12;13.80;;;4.50;;
6928;SDS011;3504;52.616;13.238;2023-12-20T18:24:13;15.13;;;6.17;;
6928;SDS011;3504;52.616;13.238;2023-12-20T18:29:20;11.03;;;4.20;;
6928;SDS011;3504;52.616;13.238;2023-12-20T18:34:21;16.63;;;4.30;;
6928;SDS011;3504;52.616;13.238;2023-12-20T18:39:23;10.33;;;4.17;;
6928;SDS011;3504;52.616;13.238;2023-12-20T18:44:24;12.53;;;3.80;;
6928;SDS011;3504;52.616;13.238;2023-12-20T18:49:25;11.77;;;3.87;;
6928;SDS011;3504;52.616;13.238;2023-12-20T18:54:25;12.23;;;3.93;;
6928;SDS011;3504;52.616;13.238;2023-12-20T18:59:26;15.17;;;5.10;;
6928;SDS011;3504;52.616;13.238;2023-12-20T19:04:27;14.90;;;5.07;;
6928;SDS011;3504;52.616;13.238;2023-12-20T19:09:28;15.47;;;6.27;;
6928;SDS011;3504;52.616;13.238;2023-12-20T19:14:29;14.40;;;4.57;;
6928;SDS011;3504;52.616;13.238;2023-12-20T19:19:31;9.73;;;3.20;;
6928;SDS011;3504;52.616;13.238;2023-12-20T19:24:32;11.97;;;3.93;;
6928;SDS011;3504;52.616;13.238;2023-12-20T19:29:32;12.50;;;3.57;;
6928;SDS011;3504;52.616;13.238;2023-12-20T19:34:33;11.23;;;3.97;;
6928;SDS011;3504;52.616;13.238;2023-12-20T19:39:34;10.07;;;3.40;;
6928;SDS011;3504;52.616;13.238;2023-12-20T19:44:35;10.87;;;3.50;;
6928;SDS011;3504;52.616;13.238;2023-12-20T19:49:35;10.20;;;3.37;;
6928;SDS011;3504;52.616;13.238;2023-12-20T19:54:36;7.73;;;3.00;;
6928;SDS011;3504;52.616;13.238;2023-12-20T19:59:37;10.93;;;3.20;;
6928;SDS011;3504;52.616;13.238;2023-12-20T20:04:37;10.97;;;2.67;;
6928;SDS011;3504;52.616;13.238;2023-12-20T20:09:38;13.83;;;3.30;;
6928;SDS011;3504;52.616;13.238;2023-12-20T20:14:39;7.83;;;3.10;;
6928;SDS011;3504;52.616;13.238;2023-12-20T20:19:39;8.53;;;3.20;;
6928;SDS011;3504;52.616;13.238;2023-12-20T20:24:40;7.97;;;3.37;;
6928;SDS011;3504;52.616;13.238;2023-12-20T20:29:41;7.60;;;2.90;;
6928;SDS011;3504;52.616;13.238;2023-12-20T20:34:43;10.83;;;3.23;;
6928;SDS011;3504;52.616;13.238;2023-12-20T20:39:44;4.53;;;2.17;;
6928;SDS011;3504;52.616;13.238;2023-12-20T20:44:44;11.87;;;3.30;;
6928;SDS011;3504;52.616;13.238;2023-12-20T20:49:45;9.13;;;2.67;;
6928;SDS011;3504;52.616;13.238;2023-12-20T20:54:45;10.23;;;2.10;;
6928;SDS011;3504;52.616;13.238;2023-12-20T20:59:46;9.63;;;2.80;;
6928;SDS011;3504;52.616;13.238;2023-12-20T21:04:47;10.87;;;2.43;;
6928;SDS011;3504;52.616;13.238;2023-12-20T21:09:50;5.77;;;2.37;;
6928;SDS011;3504;52.616;13.238;2023-12-20T21:14:51;9.30;;;2.83;;
6928;SDS011;3504;52.616;13.238;2023-12-20T21:19:52;8.47;;;2.43;;
6928;SDS011;3504;52.616;13.238;2023-12-20T21:24:53;7.50;;;2.30;;
6928;SDS011;3504;52.616;13.238;2023-12-20T21:29:53;6.57;;;2.33;;
6928;SDS011;3504;52.616;13.238;2023-12-20T21:34:54;8.60;;;3.07;;
6928;SDS011;3504;52.616;13.238;2023-12-20T21:39:54;7.40;;;2.63;;
6928;SDS011;3504;52.616;13.238;2023-12-20T21:44:55;8.90;;;2.90;;
6928;SDS011;3504;52.616;13.238;2023-12-20T21:49:55;4.37;;;2.80;;
6928;SDS011;3504;52.616;13.238;2023-12-20T21:54:56;4.23;;;2.23;;
6928;SDS011;3504;52.616;13.238;2023-12-20T21:59:56;6.47;;;2.70;;
6928;SDS011;3504;52.616;13.238;2023-12-20T22:04:58;3.90;;;1.97;;
6928;SDS011;3504;52.616;13.238;2023-12-20T22:09:59;8.10;;;2.30;;
6928;SDS011;3504;52.616;13.238;2023-12-20T22:14:59;6.87;;;3.07;;
6928;SDS011;3504;52.616;13.238;2023-12-20T22:20:00;7.40;;;2.50;;
6928;SDS011;3504;52.616;13.238;2023-12-20T22:25:00;5.00;;;2.57;;
6928;SDS011;3504;52.616;13.238;2023-12-20T22:30:02;3.77;;;1.90;;
6928;SDS011;3504;52.616;13.238;2023-12-20T22:35:04;4.13;;;2.67;;
6928;SDS011;3504;52.616;13.238;2023-12-20T22:40:07;4.93;;;1.60;;
6928;SDS011;3504;52.616;13.238;2023-12-20T22:45:09;6.03;;;2.07;;
6928;SDS011;3504;52.616;13.238;2023-12-20T22:50:10;6.93;;;2.20;;
6928;SDS011;3504;52.616;13.238;2023-12-20T22:55:10;4.90;;;2.17;;
6928;SDS011;3504;52.616;13.238;2023-12-20T23:00:11;5.07;;;2.30;;
6928;SDS011;3504;52.616;13.238;2023-12-20T23:05:16;12.97;;;3.00;;
6928;SDS011;3504;52.616;13.238;2023-12-20T23:10:17;5.17;;;2.30;;
6928;SDS011;3504;52.616;13.238;2023-12-20T23:15:22;5.17;;;1.87;;
6928;SDS011;3504;52.616;13.238;2023-12-20T23:20:23;4.30;;;2.17;;
6928;SDS011;3504;52.616;13.238;2023-12-20T23:25:23;6.87;;;2.07;;
6928;SDS011;3504;52.616;13.238;2023-12-20T23:30:24;7.10;;;2.63;;
6928;SDS011;3504;52.616;13.238;2023-12-20T23:35:25;5.83;;;2.37;;
6928;SDS011;3504;52.616;13.238;2023-12-20T23:40:25;6.03;;;2.30;;
6928;SDS011;3504;52.616;13.238;2023-12-20T23:45:26;7.53;;;2.77;;
6928;SDS011;3504;52.616;13.238;2023-12-20T23:50:26;3.80;;;2.47;;
6928;SDS011;3504;52.616;13.238;2023-12-20T23:55:27;5.63;;;2.73;;
